KOKC/OKC METAR and TAF weather

Enter ICAO airport designator
Station Type Date Time Source
KOKC METAR 2021/06/24 05:52 UTC NOAA

KOKC 240552Z 16009KT 10SM FEW250 25/21 A2990 RMK AO2 SLP107 T02500211 10311 20250 403280194 50006


Station Type Date Time Source
KOKC Decoded METAR 2021/06/24 05:52 UTC NOAA

WILL ROGERS WORLD AIRPORT, OK, United States (KOKC) 35-23N 97-36W 390M
Jun 24, 2021 - 01:52 AM EDT / 2021.06.24 0552 UTC
Wind: from the SSE (160 degrees) at 10 MPH (9 KT):0
Visibility: 10 mile(s):0
Sky conditions: mostly clear
Temperature: 77.0 F (25.0 C)
Dew Point: 70.0 F (21.1 C)
Relative Humidity: 78%
Pressure (altimeter): 29.9 in. Hg (1012 hPa)
Pressure tendency: 0.02 inches (0.6 hPa) higher than three hours ago
ob: KOKC 240552Z 16009KT 10SM FEW250 25/21 A2990 RMK AO2 SLP107 T02500211 10311 20250 403280194 50006
cycle: 6

Station Type Date Time Source
KOKC TAF 2021/06/24 06:22 UTC NOAA

TAF KOKC 240520Z 2406/2506 17013KT P6SM SCT250
FM240800 17013KT P6SM SCT250 WS020/20045KT
FM241600 20018G28KT P6SM SCT035 SCT150

Example: see airport list